Time;durP1;ratioP1;P1;durP2;ratioP2;P2;SDS_P1;SDS_P2;PMS_P1;PMS_P2;Temp;Humidity;BMP_temperature;BMP_pressure;BME280_temperature;BME280_humidity;BME280_pressure;Samples;Min_cycle;Max_cycle;Signal;HPM_P1;HPM_P2
2022/08/04 00:00:58;;;;;;;4.80;2.60;;;;;;;27.36;48.58;101126.84;5091739;28;20115;-73
2022/08/04 00:03:40;;;;;;;8.15;2.80;;;;;;;27.34;48.61;101126.22;5091755;28;20036;-73
2022/08/04 00:06:15;;;;;;;5.63;2.50;;;;;;;27.32;48.64;101129.19;5090533;28;20540;-73
2022/08/04 00:08:49;;;;;;;6.60;2.75;;;;;;;27.29;48.74;101115.81;5091832;27;20505;-73
2022/08/04 00:11:21;;;;;;;8.10;2.97;;;;;;;27.27;48.63;101117.09;5091519;28;20561;-73
2022/08/04 00:14:03;;;;;;;8.75;3.08;;;;;;;27.21;48.71;101116.03;5091678;28;20412;-74
2022/08/04 00:16:36;;;;;;;4.22;2.80;;;;;;;27.18;48.94;101120.06;5091179;28;20417;-73
2022/08/04 00:19:10;;;;;;;5.00;3.08;;;;;;;27.15;48.81;101114.97;5091756;28;20080;-73
2022/08/04 00:21:40;;;;;;;4.70;2.70;;;;;;;27.14;49.09;101112.41;5091340;28;20042;-73
2022/08/04 00:24:13;;;;;;;7.78;2.92;;;;;;;27.10;48.95;101113.91;5091566;28;20059;-73
2022/08/04 00:26:40;;;;;;;5.05;3.22;;;;;;;27.07;48.85;101115.16;5091520;28;20052;-73
2022/08/04 00:29:07;;;;;;;7.10;3.38;;;;;;;27.05;48.92;101108.16;5091383;28;20040;-72
2022/08/04 00:31:35;;;;;;;5.93;3.10;;;;;;;27.02;48.82;101112.19;5091627;28;20040;-72
2022/08/04 00:34:26;;;;;;;4.90;2.90;;;;;;;26.96;48.98;101106.66;5091663;28;20040;-72
2022/08/04 00:36:53;;;;;;;4.15;2.60;;;;;;;26.92;48.69;101103.47;5093660;28;20409;-72
2022/08/04 00:39:20;;;;;;;4.80;3.08;;;;;;;26.88;48.81;101099.41;5095295;28;20036;-72
2022/08/04 00:42:23;;;;;;;6.03;2.95;;;;;;;26.85;49.24;101102.59;5095458;28;20071;-72
2022/08/04 00:45:08;;;;;;;7.60;2.85;;;;;;;26.81;49.03;101093.06;5095891;28;20044;-73
2022/08/04 00:47:49;;;;;;;7.50;3.08;;;;;;;26.78;49.21;101094.31;5095644;28;20521;-71
2022/08/04 00:50:42;;;;;;;7.45;2.78;;;;;;;26.76;48.94;101099.19;5095400;27;20498;-72
2022/08/04 00:53:46;;;;;;;5.45;2.90;;;;;;;26.70;48.96;101093.63;5095279;28;20119;-71
2022/08/04 00:56:18;;;;;;;;;;;;;;;26.68;48.95;101095.75;5096050;28;20036;-71
2022/08/04 00:58:51;;;;;;;8.45;2.50;;;;;;;26.69;48.96;101097.44;5094719;28;19930;-71
2022/08/04 01:01:36;;;;;;;7.68;3.30;;;;;;;26.64;49.06;101089.81;5093728;28;20426;-72
2022/08/04 01:04:10;;;;;;;;;;;;;;;26.64;48.89;101097.22;5094006;28;20044;-71
2022/08/04 01:06:57;;;;;;;4.65;2.38;;;;;;;26.63;49.00;101088.09;5094675;27;19920;-71
2022/08/04 01:09:44;;;;;;;5.85;3.22;;;;;;;26.59;48.80;101084.94;5094408;28;20040;-73
2022/08/04 01:12:32;;;;;;;6.40;3.00;;;;;;;26.56;49.05;101084.50;5094412;28;20060;-72
2022/08/04 01:15:05;;;;;;;4.22;2.92;;;;;;;26.52;49.18;101083.22;5094664;28;20051;-72
2022/08/04 01:17:35;;;;;;;5.75;2.90;;;;;;;26.49;49.33;101081.72;5094655;28;20036;-72
2022/08/04 01:20:07;;;;;;;5.07;2.85;;;;;;;26.47;49.33;101071.97;5094648;28;20485;-71
2022/08/04 01:23:08;;;;;;;6.70;2.88;;;;;;;26.44;49.40;101069.63;5094017;28;20040;-72
2022/08/04 01:25:52;;;;;;;5.10;2.97;;;;;;;26.43;49.55;101071.53;5092778;28;20055;-71
2022/08/04 01:28:29;;;;;;;4.07;2.50;;;;;;;26.39;49.55;101067.50;5094202;28;20040;-71
2022/08/04 01:31:00;;;;;;;;;;;;;;;26.38;49.32;101067.69;5094463;28;20136;-71
2022/08/04 01:33:36;;;;;;;5.93;2.72;;;;;;;26.38;49.27;101062.19;5094191;28;20258;-71
2022/08/04 01:36:23;;;;;;;6.10;2.65;;;;;;;26.31;49.46;101059.38;5094417;28;20047;-72
2022/08/04 01:38:52;;;;;;;6.32;3.05;;;;;;;26.26;49.36;101067.41;5095719;28;20036;-71
2022/08/04 01:41:21;;;;;;;8.38;3.30;;;;;;;26.21;49.40;101061.69;5095775;28;20044;-71
2022/08/04 01:44:03;;;;;;;6.00;2.70;;;;;;;26.15;49.50;101060.59;5095551;28;20040;-72
2022/08/04 01:46:32;;;;;;;6.35;2.80;;;;;;;26.14;49.59;101071.81;5095394;27;20059;-71
2022/08/04 01:49:01;;;;;;;5.53;3.20;;;;;;;26.11;49.66;101066.72;5095600;28;20482;-71
2022/08/04 01:51:33;;;;;;;4.95;2.97;;;;;;;26.10;49.53;101065.03;5094252;28;20089;-72
2022/08/04 01:54:08;;;;;;;6.10;3.28;;;;;;;26.07;49.72;101057.19;5094159;28;20046;-72
2022/08/04 01:56:35;;;;;;;5.17;3.27;;;;;;;26.05;49.70;101060.13;5095453;28;20067;-72
2022/08/04 01:59:02;;;;;;;7.78;3.13;;;;;;;26.03;49.81;101058.66;5094058;28;20302;-72
2022/08/04 02:01:35;;;;;;;7.30;3.30;;;;;;;25.99;49.88;101052.66;5094166;28;20047;-72
2022/08/04 02:04:05;;;;;;;8.77;3.42;;;;;;;25.96;49.88;101056.69;5095230;28;20093;-71
2022/08/04 02:06:58;;;;;;;6.35;3.28;;;;;;;25.94;49.80;101056.03;5095134;28;20490;-71
2022/08/04 02:09:27;;;;;;;6.05;3.15;;;;;;;25.93;49.92;101056.25;5095185;27;20048;-71
2022/08/04 02:12:02;;;;;;;5.65;3.40;;;;;;;25.90;49.70;101045.66;5094701;28;20433;-74
2022/08/04 02:15:12;;;;;;;8.98;3.38;;;;;;;25.84;49.94;101047.31;5093703;28;20052;-74
2022/08/04 02:17:42;;;;;;;8.93;4.25;;;;;;;25.83;50.05;101042.84;5093848;28;20036;-74
2022/08/04 02:20:21;;;;;;;6.40;3.35;;;;;;;25.82;49.91;101038.41;5093507;28;20044;-75
2022/08/04 02:22:53;;;;;;;7.28;3.40;;;;;;;25.80;50.13;101037.78;5094784;28;20044;-75
2022/08/04 02:25:25;;;;;;;5.90;3.58;;;;;;;25.78;50.15;101037.13;5093320;28;20498;-75
2022/08/04 02:28:27;;;;;;;9.20;3.85;;;;;;;25.76;50.31;101035.63;5093511;28;20040;-75
2022/08/04 02:30:56;;;;;;;7.88;3.38;;;;;;;25.75;49.87;101034.78;5094558;28;20047;-75
2022/08/04 02:33:37;;;;;;;9.20;3.03;;;;;;;25.74;50.32;101038.59;5094583;28;20040;-74
2022/08/04 02:36:08;;;;;;;5.43;3.53;;;;;;;25.73;50.13;101031.38;5094661;28;20517;-72
2022/08/04 02:38:58;;;;;;;8.00;3.65;;;;;;;25.71;50.10;101024.38;5093224;28;20072;-72
2022/08/04 02:41:27;;;;;;;9.27;3.90;;;;;;;25.71;50.08;101027.13;5094254;28;20071;-72
2022/08/04 02:44:01;;;;;;;8.57;3.97;;;;;;;25.70;50.31;101026.28;5093999;28;20405;-72
2022/08/04 02:46:28;;;;;;;8.02;3.90;;;;;;;25.69;50.39;101027.34;5094010;27;20044;-72
2022/08/04 02:48:56;;;;;;;8.48;3.80;;;;;;;25.69;50.31;101029.25;5094088;28;20130;-74
2022/08/04 02:51:27;;;;;;;8.25;4.00;;;;;;;25.65;50.34;101024.16;5093750;28;20044;-73
2022/08/04 02:54:00;;;;;;;9.32;3.50;;;;;;;25.65;50.29;101017.75;5093983;28;20047;-72
2022/08/04 02:56:30;;;;;;;6.22;3.63;;;;;;;25.63;50.27;101019.88;5092871;28;20044;-72
2022/08/04 02:59:02;;;;;;;8.80;3.95;;;;;;;25.61;50.48;101016.47;5093281;28;20037;-72
2022/08/04 03:01:30;;;;;;;10.27;3.58;;;;;;;25.60;50.42;101020.28;5092869;28;20044;-72
2022/08/04 03:04:18;;;;;;;10.02;3.63;;;;;;;25.55;50.77;101012.63;5075198;28;20052;-72
2022/08/04 03:07:21;;;;;;;8.85;4.07;;;;;;;25.53;50.44;101012.00;5093510;28;20032;-72
2022/08/04 03:10:09;;;;;;;7.78;4.03;;;;;;;25.51;50.59;101016.00;5092123;28;20097;-72
2022/08/04 03:13:00;;;;;;;8.90;4.00;;;;;;;25.48;50.60;101010.91;5093137;28;20135;-72
2022/08/04 03:15:45;;;;;;;8.60;4.07;;;;;;;25.45;50.58;101012.16;5093204;28;20036;-72
2022/08/04 03:18:30;;;;;;;8.10;4.03;;;;;;;25.44;50.61;101009.59;5093255;28;20115;-71
2022/08/04 03:21:35;;;;;;;8.55;3.83;;;;;;;25.40;50.71;101005.56;5092008;28;20044;-71
2022/08/04 03:24:25;;;;;;;5.38;3.97;;;;;;;25.38;50.80;101005.75;5092453;28;20036;-72
2022/08/04 03:27:09;;;;;;;8.15;3.92;;;;;;;25.37;50.81;101005.97;5093005;28;20473;-73
2022/08/04 03:29:55;;;;;;;6.72;3.67;;;;;;;25.33;50.59;101000.03;5091578;28;20577;-73
2022/08/04 03:32:40;;;;;;;7.90;3.97;;;;;;;25.30;50.72;100992.19;5091166;28;20036;-73
2022/08/04 03:35:31;;;;;;;7.07;3.40;;;;;;;25.28;50.83;100997.88;5074596;27;20040;-73
2022/08/04 03:38:16;;;;;;;8.20;3.65;;;;;;;25.27;50.83;100992.59;5091462;28;20135;-72
2022/08/04 03:41:20;;;;;;;7.75;3.85;;;;;;;25.23;50.80;100994.84;5091301;28;20131;-75
2022/08/04 03:44:37;;;;;;;5.40;3.65;;;;;;;25.20;50.84;100997.16;5090939;28;20036;-74
2022/08/04 03:47:28;;;;;;;8.30;4.07;;;;;;;25.15;50.85;100992.25;5091007;28;20559;-75
2022/08/04 03:50:11;;;;;;;7.50;3.35;;;;;;;25.14;50.91;100993.31;5090894;28;20044;-75
2022/08/04 03:53:19;;;;;;;7.43;3.63;;;;;;;25.10;50.88;100989.25;5092178;28;20148;-74
2022/08/04 03:55:53;;;;;;;6.57;3.35;;;;;;;25.11;50.83;100990.97;5091841;28;20397;-75
2022/08/04 03:58:39;;;;;;;9.43;3.88;;;;;;;25.07;51.20;100992.41;5091961;28;20039;-73
2022/08/04 04:01:12;;;;;;;8.20;3.80;;;;;;;25.08;51.30;100988.63;5091553;28;20044;-74
2022/08/04 04:04:16;;;;;;;7.32;3.58;;;;;;;25.07;51.46;100978.66;5091301;28;20039;-73
2022/08/04 04:07:33;;;;;;;7.00;3.53;;;;;;;25.06;51.27;100981.63;5090064;28;20495;-73
2022/08/04 04:10:23;;;;;;;;;;;;;;;25.06;50.92;100976.97;5047093;28;20060;-73
2022/08/04 04:13:31;;;;;;;5.45;3.22;;;;;;;25.07;50.92;100978.66;5095985;28;20364;-73
2022/08/04 04:16:25;;;;;;;7.78;3.53;;;;;;;25.03;50.99;100978.22;5078764;28;20413;-74
2022/08/04 04:19:19;;;;;;;7.00;3.28;;;;;;;24.99;50.99;100979.69;5097295;28;20401;-73
2022/08/04 04:22:10;;;;;;;8.98;3.50;;;;;;;24.99;51.15;100973.31;5096437;28;20050;-73
2022/08/04 04:25:02;;;;;;;6.40;3.38;;;;;;;25.01;50.99;100973.97;5097011;28;20071;-73
2022/08/04 04:28:06;;;;;;;7.40;3.55;;;;;;;25.04;51.04;100973.56;5097086;28;20044;-74
2022/08/04 04:31:26;;;;;;;6.28;3.17;;;;;;;25.06;51.07;100973.38;5096069;28;20538;-73
2022/08/04 04:34:15;;;;;;;6.28;3.28;;;;;;;25.06;50.69;100968.72;5095327;28;20063;-74
2022/08/04 04:37:16;;;;;;;9.00;3.33;;;;;;;25.10;50.74;100975.53;5095662;28;20044;-73
2022/08/04 04:40:05;;;;;;;7.13;3.00;;;;;;;25.14;50.81;100989.72;5096527;28;20089;-73
2022/08/04 04:42:34;;;;;;;10.48;3.50;;;;;;;25.17;50.79;101006.66;5096431;28;20040;-72
2022/08/04 04:45:19;;;;;;;9.27;4.28;;;;;;;25.16;50.71;101006.84;5096730;28;20062;-73
2022/08/04 04:48:02;;;;;;;5.65;4.30;;;;;;;25.13;50.95;101012.75;5093502;28;20048;-72
2022/08/04 04:50:45;;;;;;;8.05;4.03;;;;;;;25.13;51.12;100996.25;5094570;28;20032;-73
2022/08/04 04:53:43;;;;;;;5.82;3.70;;;;;;;25.11;51.12;100995.63;5094943;28;20051;-73
2022/08/04 04:56:38;;;;;;;7.45;3.47;;;;;;;25.14;50.91;101015.28;5085701;28;20071;-73
2022/08/04 04:59:10;;;;;;;9.10;4.20;;;;;;;25.18;51.19;101022.09;5094867;28;20042;-73
2022/08/04 05:01:59;;;;;;;10.20;4.93;;;;;;;25.19;51.19;101034.78;5094002;28;20507;-73
2022/08/04 05:05:03;;;;;;;11.65;5.28;;;;;;;25.18;51.38;101033.09;5094594;28;20048;-73
2022/08/04 05:07:39;;;;;;;9.85;5.00;;;;;;;25.18;51.16;101044.09;5094647;28;20132;-74
2022/08/04 05:10:32;;;;;;;11.00;5.43;;;;;;;25.22;51.12;101048.13;5094600;27;20060;-74
2022/08/04 05:13:18;;;;;;;13.98;5.47;;;;;;;25.23;51.28;101040.72;5094192;28;20484;-72
2022/08/04 05:16:33;;;;;;;10.07;5.05;;;;;;;25.25;51.52;101033.97;5094140;28;20036;-73
2022/08/04 05:19:22;;;;;;;12.95;5.53;;;;;;;25.33;51.73;101042.09;5086722;28;20044;-71
2022/08/04 05:22:02;;;;;;;15.05;6.18;;;;;;;25.40;51.56;101039.41;5100724;28;20290;-71
2022/08/04 05:24:36;;;;;;;11.40;4.70;;;;;;;25.46;51.53;101037.75;5093528;28;20036;-71
2022/08/04 05:27:10;;;;;;;9.23;4.93;;;;;;;25.53;51.84;101036.75;5093788;28;20029;-71
2022/08/04 05:29:45;;;;;;;9.63;4.15;;;;;;;25.63;51.81;101041.88;5089482;28;20054;-71
2022/08/04 05:32:15;;;;;;;11.02;5.18;;;;;;;25.72;51.91;101051.69;5093430;28;20040;-72
2022/08/04 05:34:52;;;;;;;11.23;5.32;;;;;;;25.79;51.81;101048.97;5093585;28;20048;-74
2022/08/04 05:37:21;;;;;;;11.60;5.03;;;;;;;25.85;51.97;101046.25;5092640;28;20036;-72
2022/08/04 05:40:03;;;;;;;13.70;5.05;;;;;;;25.94;52.39;101055.19;5093599;28;20042;-73
2022/08/04 05:42:33;;;;;;;13.50;5.20;;;;;;;26.02;52.25;101054.19;5093681;28;20050;-74
2022/08/04 05:45:01;;;;;;;13.88;5.60;;;;;;;26.10;51.84;101065.03;5093138;28;20037;-73
2022/08/04 05:47:30;;;;;;;10.73;5.90;;;;;;;26.15;51.75;101068.00;5095810;28;20032;-72
2022/08/04 05:49:59;;;;;;;13.88;6.25;;;;;;;26.19;51.65;101048.13;5095831;28;20083;-73
2022/08/04 05:52:30;;;;;;;12.55;5.68;;;;;;;26.23;51.57;101054.06;5077733;28;20109;-73
2022/08/04 05:54:58;;;;;;;14.32;6.90;;;;;;;26.28;51.23;101046.88;5077955;28;20142;-73
2022/08/04 05:57:25;;;;;;;14.25;5.78;;;;;;;26.34;51.50;101047.16;5096263;28;20082;-72
2022/08/04 05:59:57;;;;;;;11.80;6.90;;;;;;;26.38;51.72;101052.03;5093389;28;20046;-73
2022/08/04 06:02:26;;;;;;;15.35;7.57;;;;;;;26.44;51.83;101064.97;5095377;28;20042;-73
2022/08/04 06:04:55;;;;;;;12.02;7.68;;;;;;;26.48;51.38;101063.50;5094552;28;20511;-74
2022/08/04 06:07:22;;;;;;;14.70;7.97;;;;;;;26.53;51.47;101051.84;5096972;28;20155;-72
2022/08/04 06:09:49;;;;;;;14.32;7.93;;;;;;;26.59;51.43;101045.50;5095825;28;20044;-72
2022/08/04 06:12:59;;;;;;;12.52;6.97;;;;;;;26.65;51.44;101041.06;5093663;28;20050;-72
2022/08/04 06:15:27;;;;;;;14.40;7.47;;;;;;;26.77;51.44;101043.03;5094504;28;20169;-72
2022/08/04 06:18:01;;;;;;;12.70;6.93;;;;;;;26.84;51.38;101034.75;5094265;28;20115;-72
2022/08/04 06:20:51;;;;;;;12.25;6.68;;;;;;;26.90;51.33;101040.28;5092673;28;20612;-71
2022/08/04 06:23:24;;;;;;;13.75;7.53;;;;;;;26.95;51.24;101036.88;5072147;28;20667;-73
2022/08/04 06:25:55;;;;;;;11.52;7.47;;;;;;;27.01;51.25;101029.72;5073293;28;20051;-73
2022/08/04 06:28:23;;;;;;;11.93;7.80;;;;;;;27.06;51.00;101033.53;5077345;28;20043;-73
2022/08/04 06:30:51;;;;;;;10.75;7.78;;;;;;;27.11;50.83;101041.16;5093496;28;20062;-73
2022/08/04 06:33:32;;;;;;;12.95;7.10;;;;;;;27.15;50.64;101037.75;5092289;28;20087;-73
2022/08/04 06:36:19;;;;;;;12.85;7.38;;;;;;;27.22;50.47;101037.75;5093709;28;20032;-73
2022/08/04 06:38:46;;;;;;;16.10;7.10;;;;;;;27.30;50.49;101037.53;5093649;28;20123;-73
2022/08/04 06:41:24;;;;;;;12.80;7.50;;;;;;;27.40;50.36;101035.19;5077221;28;20081;-73
2022/08/04 06:43:52;;;;;;;15.25;7.95;;;;;;;27.49;50.09;101033.88;5092035;28;20043;-74
2022/08/04 06:46:20;;;;;;;12.27;7.75;;;;;;;27.62;50.22;101035.84;5092737;28;20048;-73
2022/08/04 06:48:49;;;;;;;16.75;7.90;;;;;;;27.77;50.27;101041.09;5088024;28;20058;-73
2022/08/04 06:51:20;;;;;;;11.57;7.45;;;;;;;27.95;50.21;101040.41;5093104;28;20055;-73
2022/08/04 06:54:03;;;;;;;11.95;7.20;;;;;;;28.17;49.95;101037.09;5093161;28;20082;-74
2022/08/04 06:56:33;;;;;;;11.77;6.78;;;;;;;28.41;49.58;101038.31;5093686;27;20410;-74
2022/08/04 06:59:02;;;;;;;13.05;6.78;;;;;;;28.56;49.13;101039.94;5093613;28;20028;-76
2022/08/04 07:01:29;;;;;;;9.68;5.47;;;;;;;28.72;48.88;101031.94;5093300;28;20043;-77
2022/08/04 07:03:59;;;;;;;11.73;5.35;;;;;;;28.91;48.60;101029.28;5092120;28;20036;-79
2022/08/04 07:06:26;;;;;;;8.20;5.60;;;;;;;29.15;48.18;101045.06;5091193;28;20048;-80
2022/08/04 07:08:55;;;;;;;10.32;5.72;;;;;;;29.36;47.96;101046.56;5092133;28;20397;-79
2022/08/04 07:11:23;;;;;;;10.18;4.80;;;;;;;29.52;47.25;101045.16;5091029;28;20470;-79
2022/08/04 07:13:52;;;;;;;12.38;5.10;;;;;;;29.69;46.81;101044.31;5090496;28;20048;-79
2022/08/04 07:16:20;;;;;;;11.77;5.43;;;;;;;29.83;46.38;101052.50;5090938;28;20058;-79
2022/08/04 07:18:56;;;;;;;9.77;5.20;;;;;;;29.96;46.25;101052.34;5075133;28;20055;-79
2022/08/04 07:21:23;;;;;;;14.30;5.55;;;;;;;30.06;45.78;101047.16;5090835;28;20040;-79
2022/08/04 07:23:52;;;;;;;11.40;5.28;;;;;;;30.18;45.42;101044.44;5090402;28;20064;-79
2022/08/04 07:26:25;;;;;;;11.82;6.18;;;;;;;30.27;45.08;101043.03;5090557;28;20044;-79
2022/08/04 07:28:51;;;;;;;13.48;6.55;;;;;;;30.32;45.20;101044.03;5090594;28;20101;-79
2022/08/04 07:31:22;;;;;;;11.20;7.20;;;;;;;30.38;44.81;101045.00;5090617;28;20035;-79
2022/08/04 07:34:04;;;;;;;14.45;7.75;;;;;;;30.46;44.75;101047.44;5092353;28;20059;-79
2022/08/04 07:36:50;;;;;;;17.55;8.48;;;;;;;30.48;44.53;101047.25;5091139;28;20111;-80
2022/08/04 07:39:27;;;;;;;15.33;8.33;;;;;;;30.49;44.52;101044.25;5093393;28;20063;-78
2022/08/04 07:41:57;;;;;;;14.07;7.30;;;;;;;30.54;44.22;101038.84;5093803;28;20043;-79
2022/08/04 07:44:26;;;;;;;13.25;7.82;;;;;;;30.67;44.27;101046.97;5092213;28;20043;-80
2022/08/04 07:46:53;;;;;;;12.70;7.20;;;;;;;30.80;44.09;101047.84;5091274;28;20048;-80
2022/08/04 07:49:20;;;;;;;11.85;7.60;;;;;;;30.93;43.89;101044.88;5091638;28;20508;-80
2022/08/04 07:52:07;;;;;;;11.25;7.13;;;;;;;31.01;43.90;101055.63;5091615;28;20082;-79
2022/08/04 07:54:38;;;;;;;16.02;7.47;;;;;;;31.04;43.62;101054.28;5091232;28;20042;-81
2022/08/04 07:57:05;;;;;;;10.35;6.55;;;;;;;31.06;43.60;101058.53;5090136;28;20498;-80
2022/08/04 07:59:33;;;;;;;14.45;6.93;;;;;;;31.07;43.55;101054.66;5091593;28;20040;-80
2022/08/04 08:02:01;;;;;;;14.35;8.15;;;;;;;31.10;43.63;101064.44;5090710;28;20036;-80
2022/08/04 08:04:28;;;;;;;16.75;6.47;;;;;;;31.10;43.54;101064.44;5091797;28;20369;-79
2022/08/04 08:06:56;;;;;;;13.88;6.10;;;;;;;31.14;43.34;101060.09;5091437;28;20074;-80
2022/08/04 08:09:23;;;;;;;11.18;5.30;;;;;;;31.11;43.33;101066.97;5090111;28;20047;-80
2022/08/04 08:11:51;;;;;;;13.63;6.80;;;;;;;31.12;42.94;101065.03;5089673;28;20132;-80
2022/08/04 08:14:40;;;;;;;11.35;4.85;;;;;;;31.18;43.37;101053.00;5093449;28;20482;-80
2022/08/04 08:17:07;;;;;;;12.32;5.72;;;;;;;31.25;43.10;101059.31;5093008;28;20095;-79
2022/08/04 08:19:34;;;;;;;9.55;4.43;;;;;;;31.30;42.47;101048.34;5092440;28;20044;-80
2022/08/04 08:22:01;;;;;;;11.38;4.63;;;;;;;31.37;42.18;101040.75;5093989;28;20581;-80
2022/08/04 08:24:31;;;;;;;10.43;4.80;;;;;;;31.48;41.96;101042.66;5092184;28;20044;-80
2022/08/04 08:26:58;;;;;;;10.50;4.68;;;;;;;31.62;41.75;101043.25;5091598;28;20078;-79
2022/08/04 08:29:28;;;;;;;10.57;4.28;;;;;;;31.74;41.61;101048.84;5091017;27;20413;-78
2022/08/04 08:31:55;;;;;;;8.57;4.68;;;;;;;31.91;41.66;101055.31;5090823;28;20032;-78
2022/08/04 08:34:31;;;;;;;10.00;4.43;;;;;;;32.07;41.26;101051.81;5091309;28;20040;-81
2022/08/04 08:37:08;;;;;;;9.43;4.13;;;;;;;32.23;41.19;101052.97;5091110;27;20127;-80
2022/08/04 08:39:41;;;;;;;8.75;4.13;;;;;;;32.41;40.82;101057.50;5089402;28;20074;-81
2022/08/04 08:42:32;;;;;;;7.97;4.10;;;;;;;32.55;40.67;101064.47;5089997;28;20044;-81
2022/08/04 08:45:25;;;;;;;11.75;5.05;;;;;;;32.74;40.76;101074.31;5090518;28;20040;-80
2022/08/04 08:48:30;;;;;;;9.88;4.93;;;;;;;32.91;40.33;101066.03;5091290;28;20047;-81
2022/08/04 08:51:44;;;;;;;11.00;5.47;;;;;;;33.08;39.41;101072.44;5093532;28;20044;-83
2022/08/04 08:54:34;;;;;;;8.90;5.13;;;;;;;33.18;39.44;101067.03;5030486;28;20060;-80
2022/08/04 08:57:16;;;;;;;14.25;5.88;;;;;;;33.25;39.47;101066.88;5092714;28;20043;-81
2022/08/04 09:00:06;;;;;;;9.85;5.35;;;;;;;33.27;39.12;101064.69;5094771;28;20062;-82
2022/08/04 09:02:43;;;;;;;7.47;4.70;;;;;;;33.29;39.22;101070.84;5092683;28;20439;-81
2022/08/04 09:05:35;;;;;;;9.77;4.55;;;;;;;33.34;39.06;101079.28;5094778;28;20139;-82
2022/08/04 09:08:07;;;;;;;7.15;4.63;;;;;;;33.40;38.82;101071.88;5084804;28;20040;-80
2022/08/04 09:11:04;;;;;;;9.43;4.43;;;;;;;33.42;38.81;101081.66;5094857;28;20040;-81
2022/08/04 09:13:40;;;;;;;8.38;5.80;;;;;;;33.53;38.29;101092.97;5094743;28;20055;-82
2022/08/04 09:16:17;;;;;;;7.93;4.50;;;;;;;33.59;38.20;101087.22;5093377;28;20147;-82
2022/08/04 09:19:03;;;;;;;10.25;4.80;;;;;;;33.66;38.00;101084.25;5095013;28;20097;-80
2022/08/04 09:21:40;;;;;;;12.52;6.57;;;;;;;33.73;37.89;101084.94;5074640;28;20136;-81
2022/08/04 09:24:14;;;;;;;11.85;6.85;;;;;;;33.74;37.98;101092.19;5075967;28;20127;-79
2022/08/04 09:27:08;;;;;;;9.95;5.80;;;;;;;33.73;38.45;101093.28;5075958;28;20044;-79
2022/08/04 09:29:38;;;;;;;12.95;7.30;;;;;;;33.78;38.39;101101.72;5085424;28;20143;-80
2022/08/04 09:32:40;;;;;;;15.65;6.47;;;;;;;33.85;38.50;101107.13;5096686;28;20040;-78
2022/08/04 09:35:32;;;;;;;8.63;5.72;;;;;;;33.94;38.33;101105.59;5096251;28;20398;-78
2022/08/04 09:38:18;;;;;;;9.90;6.40;;;;;;;33.99;38.19;101103.72;5097403;28;20524;-79
2022/08/04 09:40:50;;;;;;;10.38;5.85;;;;;;;34.02;37.91;101105.13;5099740;28;20040;-80
2022/08/04 09:43:55;;;;;;;10.00;5.53;;;;;;;34.03;37.95;101116.03;5095818;28;20036;-77
2022/08/04 09:47:09;;;;;;;8.90;4.55;;;;;;;34.07;37.83;101105.22;5094485;28;20044;-78
2022/08/04 09:49:42;;;;;;;11.53;4.10;;;;;;;34.07;37.92;101111.63;5094484;28;20043;-78
2022/08/04 09:52:24;;;;;;;10.18;5.00;;;;;;;34.05;37.45;101113.81;5094406;28;20054;-78
2022/08/04 09:55:19;;;;;;;7.30;3.67;;;;;;;33.99;37.20;101114.84;5093842;28;20504;-81
2022/08/04 09:57:57;;;;;;;10.10;4.07;;;;;;;33.98;37.61;101123.47;5093770;28;20040;-81
2022/08/04 10:00:28;;;;;;;9.02;3.83;;;;;;;33.97;37.50;101139.34;5093214;28;20063;-80
2022/08/04 10:03:12;;;;;;;6.95;3.30;;;;;;;33.95;37.35;101144.34;5093807;28;20036;-81
2022/08/04 10:05:54;;;;;;;8.27;3.00;;;;;;;33.89;37.13;101139.81;5093422;28;20094;-81
2022/08/04 10:08:53;;;;;;;8.05;3.00;;;;;;;33.78;37.24;101136.00;5092290;28;20042;-79
2022/08/04 10:11:50;;;;;;;6.90;3.67;;;;;;;33.69;37.00;101145.03;5071939;28;20102;-79
2022/08/04 10:14:46;;;;;;;7.53;2.80;;;;;;;33.56;36.87;101146.22;5073179;28;20060;-80
2022/08/04 10:17:34;;;;;;;6.20;2.40;;;;;;;33.45;36.97;101152.72;5088736;28;20043;-81
2022/08/04 10:20:16;;;;;;;4.97;2.05;;;;;;;33.32;36.95;101151.09;5086861;28;20036;-81
2022/08/04 10:23:32;;;;;;;8.50;2.35;;;;;;;33.21;37.43;101168.69;5093108;28;20426;-79
2022/08/04 10:26:24;;;;;;;7.85;2.40;;;;;;;33.13;37.58;101183.00;5077745;28;20446;-82
2022/08/04 10:29:01;;;;;;;10.98;3.50;;;;;;;33.02;37.12;101170.84;5091942;28;20044;-84
2022/08/04 10:31:34;;;;;;;11.60;2.92;;;;;;;32.87;37.15;101178.06;5091775;28;20425;-85
2022/08/04 10:34:28;;;;;;;11.32;2.60;;;;;;;32.64;37.69;101196.44;5091979;28;20138;-85
2022/08/04 10:37:03;;;;;;;6.78;2.35;;;;;;;32.49;37.66;101208.09;5091907;28;20051;-84
2022/08/04 10:40:35;;;;;;;10.93;2.40;;;;;;;32.35;37.92;101215.03;5091495;28;20052;-85
2022/08/04 10:42:36;;;;;;;4.60;1.85;;;;;;;32.22;38.29;101213.31;5092706;28;20402;-81
2022/08/04 10:45:18;;;;;;;11.50;1.95;;;;;;;32.12;38.97;101224.19;5092268;28;20040;-83
2022/08/04 10:48:01;;;;;;;7.22;2.72;;;;;;;32.02;39.60;101245.34;5092828;28;20062;-83
2022/08/04 10:50:28;;;;;;;7.35;2.35;;;;;;;31.82;39.84;101240.09;5091449;28;20471;-85
2022/08/04 10:53:02;;;;;;;10.10;2.85;;;;;;;31.55;40.00;101243.28;5074690;28;20436;-85
2022/08/04 10:56:02;;;;;;;9.07;3.00;;;;;;;31.14;40.76;101243.22;5108578;28;20048;-82
2022/08/04 10:58:58;;;;;;;7.80;2.80;;;;;;;30.85;41.34;101247.66;5082449;28;20052;-82
2022/08/04 11:01:32;;;;;;;6.35;2.83;;;;;;;30.64;41.82;101252.63;5091616;28;20067;-83
2022/08/04 11:04:36;;;;;;;15.77;3.60;;;;;;;30.46;42.75;101232.28;5092525;28;20097;-83
2022/08/04 11:07:03;;;;;;;8.77;3.40;;;;;;;30.32;43.19;101206.66;5091565;28;20039;-81
2022/08/04 11:09:32;;;;;;;7.82;3.22;;;;;;;30.15;43.66;101203.66;5091104;28;20051;-84
2022/08/04 11:12:11;;;;;;;12.70;3.92;;;;;;;29.98;44.48;101175.66;5092167;28;20036;-82
2022/08/04 11:14:52;;;;;;;10.52;4.43;;;;;;;29.86;45.33;101160.03;5091588;28;20138;-80
2022/08/04 11:17:25;;;;;;;10.73;4.38;;;;;;;29.81;45.27;101162.66;5090854;28;20044;-82
2022/08/04 11:20:12;;;;;;;6.13;3.55;;;;;;;29.78;46.35;101161.19;5092194;28;20090;-82
2022/08/04 11:23:12;;;;;;;7.53;3.40;;;;;;;29.86;46.66;101177.50;5091135;28;20516;-84
2022/08/04 11:25:51;;;;;;;7.38;4.22;;;;;;;29.98;46.85;101183.97;5091463;28;20051;-81
2022/08/04 11:28:27;;;;;;;9.02;3.95;;;;;;;30.10;47.12;101186.03;5091810;28;20070;-83
2022/08/04 11:31:04;;;;;;;6.20;3.55;;;;;;;30.16;47.38;101198.97;5091834;28;20032;-84
2022/08/04 11:34:14;;;;;;;15.20;4.38;;;;;;;30.12;47.37;101204.09;5091700;28;20097;-83
2022/08/04 11:37:08;;;;;;;11.80;4.97;;;;;;;30.14;47.50;101221.34;5069540;28;20397;-82
2022/08/04 11:39:46;;;;;;;10.70;4.47;;;;;;;30.10;47.36;101224.81;5092512;28;20048;-80
2022/08/04 11:42:20;;;;;;;8.90;4.43;;;;;;;30.02;47.56;101218.47;5092090;28;20043;-82
2022/08/04 11:45:03;;;;;;;9.65;4.70;;;;;;;29.96;47.80;101210.22;5094181;28;20370;-81
2022/08/04 11:47:53;;;;;;;12.05;4.75;;;;;;;29.85;47.85;101203.50;5094048;28;20123;-80
2022/08/04 11:50:26;;;;;;;7.85;3.88;;;;;;;29.75;47.56;101197.63;5092578;28;20412;-77
2022/08/04 11:52:56;;;;;;;8.25;4.07;;;;;;;29.64;47.63;101178.97;5092438;28;20478;-79
2022/08/04 11:55:25;;;;;;;9.30;3.38;;;;;;;29.63;47.73;101194.72;5098795;28;20578;-78
2022/08/04 11:57:53;;;;;;;6.25;3.35;;;;;;;29.67;47.88;101198.72;5093219;28;20046;-77
2022/08/04 12:00:21;;;;;;;7.63;3.45;;;;;;;29.76;47.76;101195.69;5091099;28;20474;-80
2022/08/04 12:03:17;;;;;;;6.93;2.03;;;;;;;29.89;47.37;101196.44;5074593;28;20072;-80
2022/08/04 12:06:14;;;;;;;7.18;2.33;;;;;;;30.03;46.85;101192.47;5092480;28;20036;-80
2022/08/04 12:09:20;;;;;;;6.32;1.70;;;;;;;30.11;46.76;101185.78;5091868;28;20243;-76
2022/08/04 12:12:12;;;;;;;6.88;2.17;;;;;;;30.29;46.63;101190.50;5092181;28;20063;-76
2022/08/04 12:14:54;;;;;;;7.43;1.65;;;;;;;30.47;46.13;101189.66;5092449;27;20055;-77
2022/08/04 12:17:34;;;;;;;4.25;1.60;;;;;;;30.55;45.40;101187.44;5090671;28;20067;-75
2022/08/04 12:20:26;;;;;;;4.47;1.30;;;;;;;30.66;44.98;101185.84;5092282;28;20486;-77
2022/08/04 12:23:16;;;;;;;4.13;1.27;;;;;;;30.78;44.62;101185.91;5092441;28;20051;-77
2022/08/04 12:25:46;;;;;;;2.75;1.17;;;;;;;30.91;44.20;101189.34;5092413;28;20040;-79